sensor_id;sensor_type;location;lat;lon;timestamp;pressure;altitude;pressure_sealevel;temperature;humidity
13604;BME280;24578;48.264;11.436;2023-12-07T00:00:26;96359.63;;;-1.14;100.00
13604;BME280;24578;48.264;11.436;2023-12-07T00:06:50;96361.31;;;-1.13;100.00
13604;BME280;24578;48.264;11.436;2023-12-07T00:12:52;96360.84;;;-1.29;100.00
13604;BME280;24578;48.264;11.436;2023-12-07T00:18:53;96362.25;;;-1.54;100.00
13604;BME280;24578;48.264;11.436;2023-12-07T00:24:55;96359.28;;;-1.74;100.00
13604;BME280;24578;48.264;11.436;2023-12-07T00:30:57;96373.00;;;-1.83;100.00
13604;BME280;24578;48.264;11.436;2023-12-07T00:36:59;96374.88;;;-1.91;100.00
13604;BME280;24578;48.264;11.436;2023-12-07T00:43:01;96375.84;;;-1.99;100.00
13604;BME280;24578;48.264;11.436;2023-12-07T00:49:02;96381.09;;;-2.06;100.00
13604;BME280;24578;48.264;11.436;2023-12-07T00:55:04;96390.63;;;-2.18;100.00
13604;BME280;24578;48.264;11.436;2023-12-07T01:01:12;96390.91;;;-2.33;100.00
13604;BME280;24578;48.264;11.436;2023-12-07T01:07:14;96386.72;;;-2.36;100.00
13604;BME280;24578;48.264;11.436;2023-12-07T01:13:16;96404.50;;;-2.37;100.00
13604;BME280;24578;48.264;11.436;2023-12-07T01:19:17;96404.63;;;-2.45;100.00
13604;BME280;24578;48.264;11.436;2023-12-07T01:25:19;96422.50;;;-2.51;100.00
13604;BME280;24578;48.264;11.436;2023-12-07T01:31:24;96427.66;;;-2.57;100.00
13604;BME280;24578;48.264;11.436;2023-12-07T01:37:25;96431.91;;;-2.58;100.00
13604;BME280;24578;48.264;11.436;2023-12-07T01:43:30;96438.44;;;-2.45;100.00
13604;BME280;24578;48.264;11.436;2023-12-07T01:49:32;96443.34;;;-2.34;100.00
13604;BME280;24578;48.264;11.436;2023-12-07T01:55:34;96439.78;;;-2.25;100.00
13604;BME280;24578;48.264;11.436;2023-12-07T02:01:35;96451.44;;;-2.16;100.00
13604;BME280;24578;48.264;11.436;2023-12-07T02:07:39;96447.09;;;-2.09;100.00
13604;BME280;24578;48.264;11.436;2023-12-07T02:13:42;96446.19;;;-2.05;100.00
13604;BME280;24578;48.264;11.436;2023-12-07T02:25:52;96449.13;;;-2.27;100.00
13604;BME280;24578;48.264;11.436;2023-12-07T02:31:55;96453.53;;;-2.38;100.00
13604;BME280;24578;48.264;11.436;2023-12-07T02:37:57;96463.88;;;-2.49;100.00
13604;BME280;24578;48.264;11.436;2023-12-07T02:43:59;96457.41;;;-2.67;100.00
13604;BME280;24578;48.264;11.436;2023-12-07T02:50:02;96464.34;;;-2.79;100.00
13604;BME280;24578;48.264;11.436;2023-12-07T02:56:04;96476.16;;;-2.78;100.00
13604;BME280;24578;48.264;11.436;2023-12-07T03:02:06;96480.31;;;-2.73;100.00
13604;BME280;24578;48.264;11.436;2023-12-07T03:08:08;96491.31;;;-2.74;100.00
13604;BME280;24578;48.264;11.436;2023-12-07T03:14:09;96492.97;;;-2.72;100.00
13604;BME280;24578;48.264;11.436;2023-12-07T03:20:11;96484.47;;;-2.69;100.00
13604;BME280;24578;48.264;11.436;2023-12-07T03:26:12;96487.00;;;-2.69;100.00
13604;BME280;24578;48.264;11.436;2023-12-07T03:32:14;96488.63;;;-2.65;100.00
13604;BME280;24578;48.264;11.436;2023-12-07T03:38:16;96496.16;;;-2.59;100.00
13604;BME280;24578;48.264;11.436;2023-12-07T03:44:17;96493.56;;;-2.57;100.00
13604;BME280;24578;48.264;11.436;2023-12-07T03:50:19;96501.22;;;-2.59;100.00
13604;BME280;24578;48.264;11.436;2023-12-07T03:56:25;96494.50;;;-2.63;100.00
13604;BME280;24578;48.264;11.436;2023-12-07T04:02:27;96490.38;;;-2.69;100.00
13604;BME280;24578;48.264;11.436;2023-12-07T04:08:32;96496.44;;;-2.78;100.00
13604;BME280;24578;48.264;11.436;2023-12-07T04:14:34;96499.16;;;-2.92;100.00
13604;BME280;24578;48.264;11.436;2023-12-07T04:20:38;96496.78;;;-3.02;100.00
13604;BME280;24578;48.264;11.436;2023-12-07T04:26:39;96501.97;;;-3.12;100.00
13604;BME280;24578;48.264;11.436;2023-12-07T04:32:42;96503.78;;;-3.20;100.00
13604;BME280;24578;48.264;11.436;2023-12-07T04:38:44;96513.13;;;-3.27;100.00
13604;BME280;24578;48.264;11.436;2023-12-07T04:44:45;96525.91;;;-3.36;100.00
13604;BME280;24578;48.264;11.436;2023-12-07T04:50:47;96526.84;;;-3.42;100.00
13604;BME280;24578;48.264;11.436;2023-12-07T04:56:48;96531.09;;;-3.47;100.00
13604;BME280;24578;48.264;11.436;2023-12-07T05:02:50;96532.03;;;-3.53;100.00
13604;BME280;24578;48.264;11.436;2023-12-07T05:08:52;96528.69;;;-3.56;100.00
13604;BME280;24578;48.264;11.436;2023-12-07T05:14:54;96527.13;;;-3.67;100.00
13604;BME280;24578;48.264;11.436;2023-12-07T05:20:55;96526.38;;;-3.75;100.00
13604;BME280;24578;48.264;11.436;2023-12-07T05:26:57;96533.16;;;-3.80;100.00
13604;BME280;24578;48.264;11.436;2023-12-07T05:32:59;96528.97;;;-3.83;100.00
13604;BME280;24578;48.264;11.436;2023-12-07T05:39:01;96525.66;;;-3.86;100.00
13604;BME280;24578;48.264;11.436;2023-12-07T05:45:03;96521.53;;;-3.97;100.00
13604;BME280;24578;48.264;11.436;2023-12-07T05:51:05;96525.84;;;-4.05;100.00
13604;BME280;24578;48.264;11.436;2023-12-07T05:57:06;96528.38;;;-4.08;100.00
13604;BME280;24578;48.264;11.436;2023-12-07T06:03:08;96528.44;;;-4.13;100.00
13604;BME280;24578;48.264;11.436;2023-12-07T06:09:10;96531.00;;;-4.17;100.00
13604;BME280;24578;48.264;11.436;2023-12-07T06:15:12;96525.16;;;-4.22;100.00
13604;BME280;24578;48.264;11.436;2023-12-07T06:21:14;96531.97;;;-4.31;100.00
13604;BME280;24578;48.264;11.436;2023-12-07T06:27:15;96527.75;;;-4.33;100.00
13604;BME280;24578;48.264;11.436;2023-12-07T06:33:17;96537.09;;;-4.38;100.00
13604;BME280;24578;48.264;11.436;2023-12-07T06:39:19;96537.94;;;-4.41;100.00
13604;BME280;24578;48.264;11.436;2023-12-07T06:45:20;96550.63;;;-4.44;100.00
13604;BME280;24578;48.264;11.436;2023-12-07T06:51:22;96555.78;;;-4.61;100.00
13604;BME280;24578;48.264;11.436;2023-12-07T06:57:23;96562.66;;;-4.80;100.00
13604;BME280;24578;48.264;11.436;2023-12-07T07:03:26;96554.28;;;-4.89;100.00
13604;BME280;24578;48.264;11.436;2023-12-07T07:09:30;96557.69;;;-4.93;100.00
13604;BME280;24578;48.264;11.436;2023-12-07T07:15:32;96561.88;;;-4.93;100.00
13604;BME280;24578;48.264;11.436;2023-12-07T07:21:34;96569.44;;;-4.87;100.00
13604;BME280;24578;48.264;11.436;2023-12-07T07:27:35;96571.94;;;-4.89;100.00
13604;BME280;24578;48.264;11.436;2023-12-07T07:33:37;96572.75;;;-4.80;100.00
13604;BME280;24578;48.264;11.436;2023-12-07T07:39:39;96571.00;;;-4.72;100.00
13604;BME280;24578;48.264;11.436;2023-12-07T07:45:40;96565.94;;;-4.66;100.00
13604;BME280;24578;48.264;11.436;2023-12-07T07:51:42;96571.75;;;-4.53;100.00
13604;BME280;24578;48.264;11.436;2023-12-07T07:57:44;96572.47;;;-4.40;100.00
13604;BME280;24578;48.264;11.436;2023-12-07T08:03:47;96563.81;;;-4.11;100.00
13604;BME280;24578;48.264;11.436;2023-12-07T08:09:49;96559.16;;;-3.65;100.00
13604;BME280;24578;48.264;11.436;2023-12-07T08:15:51;96553.50;;;-3.13;100.00
13604;BME280;24578;48.264;11.436;2023-12-07T08:21:58;96557.97;;;-2.69;100.00
13604;BME280;24578;48.264;11.436;2023-12-07T08:28:00;96554.66;;;-2.20;100.00
13604;BME280;24578;48.264;11.436;2023-12-07T08:34:01;96553.91;;;-1.76;100.00
13604;BME280;24578;48.264;11.436;2023-12-07T08:40:04;96550.94;;;-1.09;100.00
13604;BME280;24578;48.264;11.436;2023-12-07T08:46:05;96555.84;;;-0.60;100.00
13604;BME280;24578;48.264;11.436;2023-12-07T08:52:08;96548.41;;;0.03;100.00
13604;BME280;24578;48.264;11.436;2023-12-07T08:58:30;96548.47;;;0.66;100.00
13604;BME280;24578;48.264;11.436;2023-12-07T09:04:32;96546.13;;;0.88;100.00
13604;BME280;24578;48.264;11.436;2023-12-07T09:10:34;96539.91;;;1.55;100.00
13604;BME280;24578;48.264;11.436;2023-12-07T09:16:42;96529.06;;;4.29;100.00
13604;BME280;24578;48.264;11.436;2023-12-07T09:22:45;96516.91;;;7.20;100.00
13604;BME280;24578;48.264;11.436;2023-12-07T09:28:48;96505.91;;;8.98;75.22
13604;BME280;24578;48.264;11.436;2023-12-07T09:34:49;96497.28;;;9.94;61.94
13604;BME280;24578;48.264;11.436;2023-12-07T09:40:53;96497.97;;;10.62;54.38
13604;BME280;24578;48.264;11.436;2023-12-07T09:46:55;96495.09;;;11.66;52.00
13604;BME280;24578;48.264;11.436;2023-12-07T09:52:57;96484.34;;;11.95;48.88
13604;BME280;24578;48.264;11.436;2023-12-07T09:59:09;96465.81;;;13.03;45.39
13604;BME280;24578;48.264;11.436;2023-12-07T10:05:12;96461.72;;;13.77;43.99
13604;BME280;24578;48.264;11.436;2023-12-07T10:11:21;96453.81;;;14.00;43.95
13604;BME280;24578;48.264;11.436;2023-12-07T10:17:22;96459.19;;;13.87;42.98
13604;BME280;24578;48.264;11.436;2023-12-07T10:23:24;96457.28;;;13.68;41.27
13604;BME280;24578;48.264;11.436;2023-12-07T10:29:28;96452.22;;;13.11;41.95
13604;BME280;24578;48.264;11.436;2023-12-07T10:35:40;96441.63;;;12.80;42.51
13604;BME280;24578;48.264;11.436;2023-12-07T10:41:43;96435.13;;;12.86;41.85
13604;BME280;24578;48.264;11.436;2023-12-07T10:47:46;96431.38;;;12.22;40.07
13604;BME280;24578;48.264;11.436;2023-12-07T10:53:51;96420.28;;;11.84;42.34
13604;BME280;24578;48.264;11.436;2023-12-07T10:59:53;96423.28;;;11.55;45.88
13604;BME280;24578;48.264;11.436;2023-12-07T11:05:56;96418.31;;;11.87;43.88
13604;BME280;24578;48.264;11.436;2023-12-07T11:12:06;96406.75;;;11.45;43.30
13604;BME280;24578;48.264;11.436;2023-12-07T11:18:12;96404.88;;;10.98;39.16
13604;BME280;24578;48.264;11.436;2023-12-07T11:24:16;96407.97;;;10.79;40.95
13604;BME280;24578;48.264;11.436;2023-12-07T11:30:18;96392.06;;;10.59;38.69
13604;BME280;24578;48.264;11.436;2023-12-07T11:36:20;96379.13;;;10.59;39.76
13604;BME280;24578;48.264;11.436;2023-12-07T11:42:22;96376.56;;;11.32;42.95
13604;BME280;24578;48.264;11.436;2023-12-07T11:48:30;96363.78;;;11.53;42.86
13604;BME280;24578;48.264;11.436;2023-12-07T11:54:32;96356.13;;;11.63;42.59
13604;BME280;24578;48.264;11.436;2023-12-07T12:00:33;96358.09;;;10.88;39.82
13604;BME280;24578;48.264;11.436;2023-12-07T12:06:35;96360.78;;;10.36;38.66
13604;BME280;24578;48.264;11.436;2023-12-07T12:12:40;96363.31;;;10.25;40.01
13604;BME280;24578;48.264;11.436;2023-12-07T12:18:42;96335.50;;;10.16;40.81
13604;BME280;24578;48.264;11.436;2023-12-07T12:24:44;96333.59;;;10.44;40.62
13604;BME280;24578;48.264;11.436;2023-12-07T12:30:46;96310.41;;;9.79;40.75
13604;BME280;24578;48.264;11.436;2023-12-07T12:36:48;96344.81;;;9.54;41.46
13604;BME280;24578;48.264;11.436;2023-12-07T12:42:51;96339.88;;;9.64;41.68
13604;BME280;24578;48.264;11.436;2023-12-07T12:49:01;96323.19;;;8.89;42.02
13604;BME280;24578;48.264;11.436;2023-12-07T12:55:07;96324.91;;;8.75;42.11
13604;BME280;24578;48.264;11.436;2023-12-07T13:01:08;96310.47;;;8.44;41.71
13604;BME280;24578;48.264;11.436;2023-12-07T13:07:13;96304.09;;;7.64;44.09
13604;BME280;24578;48.264;11.436;2023-12-07T13:13:15;96300.69;;;7.78;47.42
13604;BME280;24578;48.264;11.436;2023-12-07T13:19:17;96299.91;;;7.18;49.27
13604;BME280;24578;48.264;11.436;2023-12-07T13:25:21;96284.44;;;6.88;51.09
13604;BME280;24578;48.264;11.436;2023-12-07T13:31:23;96278.31;;;6.28;53.69
13604;BME280;24578;48.264;11.436;2023-12-07T13:37:25;96270.50;;;5.63;56.96
13604;BME280;24578;48.264;11.436;2023-12-07T13:43:27;96263.84;;;5.26;60.05
13604;BME280;24578;48.264;11.436;2023-12-07T13:49:31;96277.63;;;4.72;65.91
13604;BME280;24578;48.264;11.436;2023-12-07T13:55:35;96263.69;;;4.22;72.68
13604;BME280;24578;48.264;11.436;2023-12-07T14:01:39;96246.97;;;3.57;79.04
13604;BME280;24578;48.264;11.436;2023-12-07T14:07:41;96258.72;;;3.61;80.12
13604;BME280;24578;48.264;11.436;2023-12-07T14:13:42;96248.69;;;3.17;84.97
13604;BME280;24578;48.264;11.436;2023-12-07T14:19:44;96255.56;;;2.53;92.05
13604;BME280;24578;48.264;11.436;2023-12-07T14:25:46;96252.34;;;2.25;96.84
13604;BME280;24578;48.264;11.436;2023-12-07T14:31:49;96253.91;;;1.83;100.00
13604;BME280;24578;48.264;11.436;2023-12-07T14:37:51;96258.72;;;1.45;100.00
13604;BME280;24578;48.264;11.436;2023-12-07T14:43:53;96256.63;;;1.08;100.00
13604;BME280;24578;48.264;11.436;2023-12-07T14:49:55;96261.97;;;0.73;100.00
13604;BME280;24578;48.264;11.436;2023-12-07T14:55:59;96272.03;;;0.51;100.00
13604;BME280;24578;48.264;11.436;2023-12-07T15:02:01;96266.91;;;0.24;100.00
13604;BME280;24578;48.264;11.436;2023-12-07T15:08:03;96267.91;;;-0.09;100.00
13604;BME280;24578;48.264;11.436;2023-12-07T15:14:05;96267.50;;;-0.25;100.00
13604;BME280;24578;48.264;11.436;2023-12-07T15:20:07;96271.75;;;-0.55;100.00
13604;BME280;24578;48.264;11.436;2023-12-07T15:26:10;96279.16;;;-0.79;100.00
13604;BME280;24578;48.264;11.436;2023-12-07T15:32:12;96283.16;;;-1.03;100.00
13604;BME280;24578;48.264;11.436;2023-12-07T15:38:14;96279.44;;;-1.25;100.00
13604;BME280;24578;48.264;11.436;2023-12-07T15:44:16;96273.06;;;-1.41;100.00
13604;BME280;24578;48.264;11.436;2023-12-07T15:50:26;96278.50;;;-1.57;100.00
13604;BME280;24578;48.264;11.436;2023-12-07T15:56:27;96263.50;;;-1.66;100.00
13604;BME280;24578;48.264;11.436;2023-12-07T16:02:30;96262.09;;;-1.78;100.00
13604;BME280;24578;48.264;11.436;2023-12-07T16:08:31;96254.75;;;-1.90;100.00
13604;BME280;24578;48.264;11.436;2023-12-07T16:14:33;96251.53;;;-1.97;100.00
13604;BME280;24578;48.264;11.436;2023-12-07T16:20:35;96256.84;;;-2.09;100.00
13604;BME280;24578;48.264;11.436;2023-12-07T16:26:38;96247.00;;;-2.23;100.00
13604;BME280;24578;48.264;11.436;2023-12-07T16:32:41;96241.22;;;-2.30;100.00
13604;BME280;24578;48.264;11.436;2023-12-07T16:38:44;96234.59;;;-2.37;100.00
13604;BME280;24578;48.264;11.436;2023-12-07T16:44:45;96227.31;;;-2.53;100.00
13604;BME280;24578;48.264;11.436;2023-12-07T16:50:50;96222.41;;;-2.61;100.00
13604;BME280;24578;48.264;11.436;2023-12-07T16:56:52;96219.97;;;-2.65;100.00
13604;BME280;24578;48.264;11.436;2023-12-07T17:02:55;96221.84;;;-2.73;100.00
13604;BME280;24578;48.264;11.436;2023-12-07T17:08:57;96223.72;;;-2.83;100.00
13604;BME280;24578;48.264;11.436;2023-12-07T17:15:02;96230.31;;;-2.74;100.00
13604;BME280;24578;48.264;11.436;2023-12-07T17:21:04;96223.72;;;-2.85;100.00
13604;BME280;24578;48.264;11.436;2023-12-07T17:27:06;96215.56;;;-2.99;100.00
13604;BME280;24578;48.264;11.436;2023-12-07T17:33:08;96220.75;;;-3.07;100.00
13604;BME280;24578;48.264;11.436;2023-12-07T17:39:10;96211.53;;;-3.10;100.00
13604;BME280;24578;48.264;11.436;2023-12-07T17:45:11;96184.72;;;-3.20;100.00
13604;BME280;24578;48.264;11.436;2023-12-07T17:51:13;96175.41;;;-3.19;100.00
13604;BME280;24578;48.264;11.436;2023-12-07T17:57:15;96163.75;;;-3.28;100.00
13604;BME280;24578;48.264;11.436;2023-12-07T18:03:17;96147.75;;;-3.29;100.00
13604;BME280;24578;48.264;11.436;2023-12-07T18:09:19;96137.56;;;-3.27;100.00
13604;BME280;24578;48.264;11.436;2023-12-07T18:15:20;96126.00;;;-3.41;100.00
13604;BME280;24578;48.264;11.436;2023-12-07T18:21:22;96113.44;;;-3.45;100.00
13604;BME280;24578;48.264;11.436;2023-12-07T18:27:23;96105.91;;;-3.50;100.00
13604;BME280;24578;48.264;11.436;2023-12-07T18:33:26;96109.41;;;-3.54;100.00
13604;BME280;24578;48.264;11.436;2023-12-07T18:39:28;96104.44;;;-3.60;100.00
13604;BME280;24578;48.264;11.436;2023-12-07T18:45:30;96118.25;;;-3.80;100.00
13604;BME280;24578;48.264;11.436;2023-12-07T18:51:31;96110.91;;;-3.92;100.00
13604;BME280;24578;48.264;11.436;2023-12-07T18:57:33;96105.16;;;-4.01;100.00
13604;BME280;24578;48.264;11.436;2023-12-07T19:03:34;96106.13;;;-4.09;100.00
13604;BME280;24578;48.264;11.436;2023-12-07T19:09:36;96107.22;;;-4.26;100.00
13604;BME280;24578;48.264;11.436;2023-12-07T19:15:39;96099.78;;;-4.35;100.00
13604;BME280;24578;48.264;11.436;2023-12-07T19:21:42;96098.19;;;-4.41;100.00
13604;BME280;24578;48.264;11.436;2023-12-07T19:27:45;96099.16;;;-4.50;100.00
13604;BME280;24578;48.264;11.436;2023-12-07T19:33:47;96072.28;;;-4.55;100.00
13604;BME280;24578;48.264;11.436;2023-12-07T19:39:49;96062.19;;;-4.55;100.00
13604;BME280;24578;48.264;11.436;2023-12-07T19:45:50;96054.53;;;-4.51;100.00
13604;BME280;24578;48.264;11.436;2023-12-07T19:51:52;96054.63;;;-4.57;100.00
13604;BME280;24578;48.264;11.436;2023-12-07T19:57:54;96069.75;;;-4.54;100.00
13604;BME280;24578;48.264;11.436;2023-12-07T20:03:55;96063.34;;;-4.77;100.00
13604;BME280;24578;48.264;11.436;2023-12-07T20:09:57;96060.97;;;-4.86;100.00
13604;BME280;24578;48.264;11.436;2023-12-07T20:15:59;96057.69;;;-4.93;100.00
13604;BME280;24578;48.264;11.436;2023-12-07T20:22:00;96047.59;;;-4.94;100.00
13604;BME280;24578;48.264;11.436;2023-12-07T20:28:02;96028.31;;;-4.98;100.00
13604;BME280;24578;48.264;11.436;2023-12-07T20:34:04;96019.81;;;-4.93;100.00
13604;BME280;24578;48.264;11.436;2023-12-07T20:40:07;96003.09;;;-5.03;100.00
13604;BME280;24578;48.264;11.436;2023-12-07T20:46:09;96014.16;;;-5.10;100.00
13604;BME280;24578;48.264;11.436;2023-12-07T20:52:11;96017.63;;;-5.16;100.00
13604;BME280;24578;48.264;11.436;2023-12-07T20:58:13;96026.03;;;-5.18;100.00
13604;BME280;24578;48.264;11.436;2023-12-07T21:04:15;96012.75;;;-5.30;100.00
13604;BME280;24578;48.264;11.436;2023-12-07T21:10:17;96002.81;;;-5.42;100.00
13604;BME280;24578;48.264;11.436;2023-12-07T21:16:20;96003.75;;;-5.51;100.00
13604;BME280;24578;48.264;11.436;2023-12-07T21:22:22;95999.63;;;-5.57;100.00
13604;BME280;24578;48.264;11.436;2023-12-07T21:28:24;95987.97;;;-5.67;100.00
13604;BME280;24578;48.264;11.436;2023-12-07T21:34:25;95982.22;;;-5.78;100.00
13604;BME280;24578;48.264;11.436;2023-12-07T21:40:27;95963.75;;;-5.79;100.00
13604;BME280;24578;48.264;11.436;2023-12-07T21:46:29;95930.91;;;-5.74;100.00
13604;BME280;24578;48.264;11.436;2023-12-07T21:52:31;95912.31;;;-5.66;100.00
13604;BME280;24578;48.264;11.436;2023-12-07T21:58:33;95887.03;;;-5.64;100.00
13604;BME280;24578;48.264;11.436;2023-12-07T22:04:35;95869.56;;;-5.76;100.00
13604;BME280;24578;48.264;11.436;2023-12-07T22:10:37;95870.50;;;-5.84;100.00
13604;BME280;24578;48.264;11.436;2023-12-07T22:16:42;95869.84;;;-5.98;100.00
13604;BME280;24578;48.264;11.436;2023-12-07T22:22:44;95859.84;;;-6.03;100.00
13604;BME280;24578;48.264;11.436;2023-12-07T22:28:47;95862.53;;;-6.15;100.00
13604;BME280;24578;48.264;11.436;2023-12-07T22:34:48;95852.50;;;-6.18;100.00
13604;BME280;24578;48.264;11.436;2023-12-07T22:40:51;95839.16;;;-6.28;100.00
13604;BME280;24578;48.264;11.436;2023-12-07T22:46:52;95840.03;;;-6.29;100.00
13604;BME280;24578;48.264;11.436;2023-12-07T22:52:54;95840.13;;;-6.35;100.00
13604;BME280;24578;48.264;11.436;2023-12-07T22:58:56;95834.38;;;-6.47;100.00
13604;BME280;24578;48.264;11.436;2023-12-07T23:04:58;95825.91;;;-6.43;100.00
13604;BME280;24578;48.264;11.436;2023-12-07T23:10:59;95819.38;;;-6.58;100.00
13604;BME280;24578;48.264;11.436;2023-12-07T23:17:01;95813.53;;;-6.60;100.00
13604;BME280;24578;48.264;11.436;2023-12-07T23:23:03;95801.16;;;-6.81;100.00
13604;BME280;24578;48.264;11.436;2023-12-07T23:29:04;95794.47;;;-6.82;100.00
13604;BME280;24578;48.264;11.436;2023-12-07T23:35:06;95791.22;;;-6.92;100.00
13604;BME280;24578;48.264;11.436;2023-12-07T23:41:08;95771.16;;;-6.98;100.00
13604;BME280;24578;48.264;11.436;2023-12-07T23:47:10;95776.25;;;-7.03;100.00
13604;BME280;24578;48.264;11.436;2023-12-07T23:53:11;95779.59;;;-7.06;100.00
13604;BME280;24578;48.264;11.436;2023-12-07T23:59:13;95776.28;;;-7.09;100.00
